KREG

Louisiana Regional Airport

Gonzales, Louisiana, USA
METAR KREG 171815Z AUTO 04006KT 10SM OVC005 21/19 A3017 RMK AO2 T02100194
Observed Flight Rules
Oct-17 @ 18:15 UTC (35 minutes ago) Instrument Flight Rules
Wind Visibility Clouds
40° at 6 knots 10 miles
  • Overcast at 500' AGL
Temperatures Readings
Current 21°C / 70°F
Dewpoint 19°C / 66°F
Humidity 88%
Altimeter 30.17" Hg
Pressure 1022 hPa
Elevation 4
METAR KREG 171815Z AUTO 04006KT 10SM OVC005 21/19 A3017 RMK AO2 T02100194
Observed Flight Rules
Oct-17 @ 18:15 UTC
(35 minutes ago)
IFR
Wind Visibility
40° at 6 knots 10 miles
Clouds
  • Overcast at 500' AGL
Temperature Dewpoint
21°C / 70°F 19°C / 66°F
Humidity Altimeter Pressure
88% 30.17" Hg 1022 hPa